createdAt,value
2016-12-02T00:00:43.062Z,-3.25
2016-12-02T00:01:43.020Z,-3.28
2016-12-02T00:02:42.980Z,-3.25
2016-12-02T00:03:42.937Z,-3.23
2016-12-02T00:04:42.894Z,-3.33
2016-12-02T00:05:42.846Z,-3.36
2016-12-02T00:06:42.507Z,-3.33
2016-12-02T00:07:42.761Z,-3.45
2016-12-02T00:08:42.719Z,-3.41
2016-12-02T00:09:42.682Z,-3.43
2016-12-02T00:10:42.626Z,-3.43
2016-12-02T00:11:42.286Z,-3.56
2016-12-02T00:12:42.548Z,-3.56
2016-12-02T00:13:42.497Z,-3.56
2016-12-02T00:14:42.453Z,-3.57
2016-12-02T00:15:42.454Z,-3.49
2016-12-02T00:16:42.369Z,-3.56
2016-12-02T00:17:42.332Z,-3.59
2016-12-02T00:18:42.280Z,-3.59
2016-12-02T00:19:42.243Z,-3.46
2016-12-02T00:20:42.201Z,-3.6
2016-12-02T00:21:42.149Z,-3.6
2016-12-02T00:22:41.804Z,-3.56
2016-12-02T00:23:42.065Z,-3.57
2016-12-02T00:24:41.716Z,-3.67
2016-12-02T00:25:41.978Z,-3.66
2016-12-02T00:26:41.934Z,-3.6
2016-12-02T00:27:41.895Z,-3.54
2016-12-02T00:28:41.542Z,-3.66
2016-12-02T00:29:41.196Z,-3.75
2016-12-02T00:30:41.759Z,-3.69
2016-12-02T00:31:41.716Z,-3.76
2016-12-02T00:32:41.674Z,-3.69
2016-12-02T00:33:41.626Z,-3.66
2016-12-02T00:34:41.280Z,-3.69
2016-12-02T00:35:41.539Z,-3.69
2016-12-02T00:36:41.495Z,-3.63
2016-12-02T00:37:40.849Z,-3.54
2016-12-02T00:38:41.103Z,-3.64
2016-12-02T00:39:41.065Z,-3.67
2016-12-02T00:40:41.027Z,-3.62
2016-12-02T00:41:41.281Z,-3.56
2016-12-02T00:42:41.229Z,-3.57
2016-12-02T00:43:41.192Z,-3.71
2016-12-02T00:44:41.144Z,-3.62
2016-12-02T00:45:40.800Z,-3.69
2016-12-02T00:46:41.056Z,-3.64
2016-12-02T00:47:41.011Z,-3.67
2016-12-02T00:48:40.667Z,-3.67
2016-12-02T00:49:40.925Z,-3.69
2016-12-02T00:50:40.882Z,-3.79
2016-12-02T00:51:40.841Z,-3.79
2016-12-02T00:52:40.791Z,-3.72
2016-12-02T00:53:40.750Z,-3.86
2016-12-02T00:54:40.257Z,-3.76
2016-12-02T00:55:39.904Z,-3.79
2016-12-02T00:56:40.163Z,-3.71
2016-12-02T00:57:40.120Z,-3.75
2016-12-02T00:58:40.079Z,-3.71
2016-12-02T00:59:40.033Z,-3.69
2016-12-02T01:00:39.985Z,-3.75
2016-12-02T01:01:39.642Z,-3.76
2016-12-02T01:02:39.897Z,-3.71
2016-12-02T01:03:39.553Z,-3.83
2016-12-02T01:04:39.518Z,-3.82
2016-12-02T01:05:39.768Z,-3.72
2016-12-02T01:06:39.723Z,-3.79
2016-12-02T01:07:39.679Z,-3.75
2016-12-02T01:08:39.639Z,-3.75
2016-12-02T01:09:39.594Z,-3.82
2016-12-02T01:10:39.549Z,-3.85
2016-12-02T01:11:39.507Z,-3.85
2016-12-02T01:12:39.461Z,-3.85
2016-12-02T01:13:39.419Z,-3.78
2016-12-02T01:14:39.373Z,-3.81
2016-12-02T01:15:39.330Z,-3.81
2016-12-02T01:16:39.287Z,-3.93
2016-12-02T01:17:39.242Z,-3.93
2016-12-02T01:18:39.197Z,-3.83
2016-12-02T01:19:38.852Z,-3.91
2016-12-02T01:20:39.112Z,-3.94
2016-12-02T01:21:39.065Z,-3.9
2016-12-02T01:22:39.030Z,-3.88
2016-12-02T01:23:38.703Z,-3.96
2016-12-02T01:24:38.934Z,-3.93
2016-12-02T01:25:38.891Z,-3.9
2016-12-02T01:26:38.843Z,-3.91
2016-12-02T01:27:38.804Z,-3.96
2016-12-02T01:28:38.759Z,-3.94
2016-12-02T01:29:38.714Z,-3.94
2016-12-02T01:30:38.673Z,-3.96
2016-12-02T01:31:38.322Z,-3.93
2016-12-02T01:32:38.582Z,-3.97
2016-12-02T01:33:38.541Z,-4.03
2016-12-02T01:34:38.504Z,-4.01
2016-12-02T01:35:38.452Z,-3.91
2016-12-02T01:36:38.405Z,-4.06
2016-12-02T01:37:38.366Z,-3.96
2016-12-02T01:38:38.015Z,-3.94
2016-12-02T01:39:37.974Z,-3.93
2016-12-02T01:40:38.231Z,-3.91
2016-12-02T01:41:38.188Z,-4.06
2016-12-02T01:42:37.837Z,-4
2016-12-02T01:43:38.103Z,-4.06
2016-12-02T01:44:38.059Z,-3.96
2016-12-02T01:45:37.714Z,-3.99
2016-12-02T01:46:37.967Z,-4.04
2016-12-02T01:47:37.923Z,-3.97
2016-12-02T01:48:37.879Z,-4.07
2016-12-02T01:49:37.839Z,-4.06
2016-12-02T01:50:37.791Z,-4.03
2016-12-02T01:51:37.446Z,-4.04
2016-12-02T01:52:37.705Z,-4.11
2016-12-02T01:53:37.663Z,-4.12
2016-12-02T01:54:37.617Z,-4.12
2016-12-02T01:55:37.571Z,-4.17
2016-12-02T01:56:37.531Z,-4.18
2016-12-02T01:57:37.486Z,-4.15
2016-12-02T01:58:37.447Z,-4.1
2016-12-02T01:59:37.401Z,-4.12
2016-12-02T02:00:37.353Z,-4.25
2016-12-02T02:01:37.311Z,-4.12
2016-12-02T02:02:37.264Z,-4.18
2016-12-02T02:03:36.920Z,-4.14
2016-12-02T02:04:36.876Z,-4.14
2016-12-02T02:05:37.132Z,-4.17
2016-12-02T02:06:37.090Z,-4.14
2016-12-02T02:07:37.044Z,-4.12
2016-12-02T02:08:37.002Z,-4.12
2016-12-02T02:09:36.960Z,-4.17
2016-12-02T02:10:36.914Z,-4.11
2016-12-02T02:11:36.568Z,-4.15
2016-12-02T02:12:36.827Z,-4.06
2016-12-02T02:13:36.480Z,-4
2016-12-02T02:14:36.735Z,-4.06
2016-12-02T02:15:36.693Z,-4.11
2016-12-02T02:16:36.649Z,-4.1
2016-12-02T02:17:36.603Z,-4.04
2016-12-02T02:18:36.559Z,-4.01
2016-12-02T02:19:36.216Z,-4.15
2016-12-02T02:20:36.472Z,-4.07
2016-12-02T02:21:36.126Z,-4.07
2016-12-02T02:22:36.386Z,-4.12
2016-12-02T02:23:36.339Z,-4.11
2016-12-02T02:24:36.297Z,-4.12
2016-12-02T02:25:35.953Z,-4.18
2016-12-02T02:26:35.910Z,-4.04
2016-12-02T02:27:36.168Z,-4.1
2016-12-02T02:28:36.122Z,-4.14
2016-12-02T02:29:36.075Z,-4.15
2016-12-02T02:30:36.034Z,-4.11
2016-12-02T02:31:35.686Z,-3.99
2016-12-02T02:32:35.954Z,-4
2016-12-02T02:33:35.902Z,-4
2016-12-02T02:34:35.554Z,-4.01
2016-12-02T02:35:35.808Z,-4
2016-12-02T02:36:35.768Z,-4
2016-12-02T02:37:35.425Z,-3.97
2016-12-02T02:38:35.682Z,-4.01
2016-12-02T02:39:35.334Z,-4.03
2016-12-02T02:40:35.591Z,-4.15
2016-12-02T02:41:35.249Z,-4
2016-12-02T02:42:35.516Z,-4.15
2016-12-02T02:43:35.461Z,-4.07
2016-12-02T02:44:35.414Z,-4.21
2016-12-02T02:45:35.374Z,-4.2
2016-12-02T02:46:35.326Z,-4.11
2016-12-02T02:47:35.284Z,-4.12
2016-12-02T02:48:34.935Z,-4.07
2016-12-02T02:49:34.892Z,-4.12
2016-12-02T02:50:35.151Z,-4.11
2016-12-02T02:51:34.804Z,-4.11
2016-12-02T02:52:35.061Z,-4.11
2016-12-02T02:53:35.017Z,-4.12
2016-12-02T02:54:34.974Z,-4.17
2016-12-02T02:55:34.930Z,-4.12
2016-12-02T02:56:34.584Z,-4.15
2016-12-02T02:57:34.539Z,-4.17
2016-12-02T02:58:34.494Z,-4.22
2016-12-02T02:59:34.753Z,-4.22
2016-12-02T03:00:34.709Z,-4.21
2016-12-02T03:01:34.664Z,-4.28
2016-12-02T03:02:34.619Z,-4.3
2016-12-02T03:03:34.579Z,-4.3
2016-12-02T03:04:34.531Z,-4.29
2016-12-02T03:05:34.186Z,-4.3
2016-12-02T03:06:34.444Z,-4.25
2016-12-02T03:07:34.401Z,-4.38
2016-12-02T03:08:34.360Z,-4.33
2016-12-02T03:09:34.312Z,-4.38
2016-12-02T03:10:34.266Z,-4.4
2016-12-02T03:11:34.223Z,-4.35
2016-12-02T03:12:34.180Z,-4.43
2016-12-02T03:13:33.836Z,-4.38
2016-12-02T03:14:33.788Z,-4.39
2016-12-02T03:15:34.046Z,-4.39
2016-12-02T03:16:34.001Z,-4.39
2016-12-02T03:17:33.658Z,-4.24
2016-12-02T03:18:33.614Z,-4.25
2016-12-02T03:19:33.870Z,-4.22
2016-12-02T03:20:33.827Z,-4.29
2016-12-02T03:21:33.782Z,-4.24
2016-12-02T03:22:33.741Z,-4.22
2016-12-02T03:23:33.696Z,-4.28
2016-12-02T03:24:33.652Z,-4.25
2016-12-02T03:25:33.606Z,-4.22
2016-12-02T03:26:33.259Z,-4.21
2016-12-02T03:27:33.516Z,-4.3
2016-12-02T03:28:33.473Z,-4.33
2016-12-02T03:29:33.431Z,-4.29
2016-12-02T03:30:33.385Z,-4.22
2016-12-02T03:31:33.344Z,-4.28
2016-12-02T03:32:33.302Z,-4.22
2016-12-02T03:33:32.953Z,-4.22
2016-12-02T03:34:33.209Z,-4.28
2016-12-02T03:35:33.166Z,-4.2
2016-12-02T03:36:33.121Z,-4.22
2016-12-02T03:37:32.785Z,-4.25
2016-12-02T03:38:33.033Z,-4.21
2016-12-02T03:39:32.689Z,-4.22
2016-12-02T03:40:32.947Z,-4.22
2016-12-02T03:41:32.902Z,-4.29
2016-12-02T03:42:32.856Z,-4.29
2016-12-02T03:43:32.813Z,-4.25
2016-12-02T03:44:32.771Z,-4.39
2016-12-02T03:45:32.724Z,-4.38
2016-12-02T03:46:32.682Z,-4.33
2016-12-02T03:47:32.636Z,-4.49
2016-12-02T03:48:32.593Z,-4.49
2016-12-02T03:49:32.546Z,-4.53
2016-12-02T03:50:32.202Z,-4.58
2016-12-02T03:51:32.462Z,-4.54
2016-12-02T03:52:32.419Z,-4.67
2016-12-02T03:53:32.374Z,-4.71
2016-12-02T03:54:32.329Z,-4.74
2016-12-02T03:55:32.284Z,-4.75
2016-12-02T03:56:31.936Z,-4.67
2016-12-02T03:57:32.202Z,-4.72
2016-12-02T03:58:31.850Z,-4.74
2016-12-02T03:59:31.803Z,-4.79
2016-12-02T04:00:31.760Z,-4.74
2016-12-02T04:01:32.020Z,-4.79
2016-12-02T04:02:31.974Z,-4.78
2016-12-02T04:03:31.932Z,-4.81
2016-12-02T04:04:31.584Z,-4.78
2016-12-02T04:05:31.844Z,-4.83
2016-12-02T04:06:31.795Z,-4.71
2016-12-02T04:07:31.757Z,-4.79
2016-12-02T04:08:31.711Z,-4.79
2016-12-02T04:09:31.666Z,-4.92
2016-12-02T04:10:31.622Z,-4.81
2016-12-02T04:11:31.578Z,-4.89
2016-12-02T04:12:31.532Z,-4.78
2016-12-02T04:13:31.486Z,-4.78
2016-12-02T04:14:31.442Z,-4.79
2016-12-02T04:15:31.396Z,-4.74
2016-12-02T04:16:31.357Z,-4.79
2016-12-02T04:17:31.321Z,-4.83
2016-12-02T04:18:31.274Z,-4.79
2016-12-02T04:19:31.224Z,-4.74
2016-12-02T04:20:31.184Z,-4.78
2016-12-02T04:21:30.835Z,-4.87
2016-12-02T04:22:30.791Z,-4.86
2016-12-02T04:23:31.047Z,-4.9
2016-12-02T04:24:30.700Z,-4.92
2016-12-02T04:25:30.959Z,-4.89
2016-12-02T04:26:30.914Z,-4.92
2016-12-02T04:27:30.868Z,-4.78
2016-12-02T04:28:30.826Z,-4.95
2016-12-02T04:29:30.479Z,-4.85
2016-12-02T04:30:30.739Z,-4.86
2016-12-02T04:31:30.389Z,-4.93
2016-12-02T04:32:30.647Z,-4.93
2016-12-02T04:33:30.601Z,-4.93
2016-12-02T04:34:30.560Z,-4.87
2016-12-02T04:35:30.514Z,-4.85
2016-12-02T04:36:30.469Z,-4.9
2016-12-02T04:37:30.425Z,-4.9
2016-12-02T04:38:30.082Z,-4.96
2016-12-02T04:39:30.339Z,-4.9
2016-12-02T04:40:30.297Z,-4.92
2016-12-02T04:41:30.517Z,-4.96
2016-12-02T04:42:30.205Z,-4.97
2016-12-02T04:43:30.160Z,-4.93
2016-12-02T04:44:30.118Z,-4.9
2016-12-02T04:45:30.077Z,-4.95
2016-12-02T04:46:30.032Z,-4.89
2016-12-02T04:47:29.681Z,-5
2016-12-02T04:48:29.940Z,-5.06
2016-12-02T04:49:29.895Z,-4.89
2016-12-02T04:50:29.877Z,-5.03
2016-12-02T04:51:29.805Z,-5.07
2016-12-02T04:52:29.459Z,-4.92
2016-12-02T04:53:29.719Z,-4.93
2016-12-02T04:54:29.671Z,-4.93
2016-12-02T04:55:29.634Z,-4.93
2016-12-02T04:56:29.586Z,-4.89
2016-12-02T04:57:29.235Z,-4.93
2016-12-02T04:58:29.493Z,-4.96
2016-12-02T04:59:29.148Z,-4.95
2016-12-02T05:00:29.411Z,-4.93
2016-12-02T05:01:29.363Z,-4.93
2016-12-02T05:02:29.317Z,-4.93
2016-12-02T05:03:28.977Z,-4.99
2016-12-02T05:04:29.228Z,-4.89
2016-12-02T05:05:28.883Z,-4.9
2016-12-02T05:06:28.839Z,-5
2016-12-02T05:07:29.097Z,-5.06
2016-12-02T05:08:29.053Z,-5.04
2016-12-02T05:09:29.008Z,-5.03
2016-12-02T05:10:28.963Z,-5.03
2016-12-02T05:11:28.918Z,-5.06
2016-12-02T05:12:28.877Z,-5
2016-12-02T05:13:28.831Z,-5
2016-12-02T05:14:28.786Z,-5.03
2016-12-02T05:15:28.742Z,-5.03
2016-12-02T05:16:28.700Z,-5.04
2016-12-02T05:17:28.657Z,-5.04
2016-12-02T05:18:28.304Z,-5
2016-12-02T05:19:28.565Z,-5
2016-12-02T05:20:28.523Z,-5.11
2016-12-02T05:21:28.473Z,-4.99
2016-12-02T05:22:28.434Z,-5.14
2016-12-02T05:23:28.386Z,-5.19
2016-12-02T05:24:28.342Z,-5.22
2016-12-02T05:25:27.997Z,-5.23
2016-12-02T05:26:28.252Z,-5.25
2016-12-02T05:27:28.232Z,-5.18
2016-12-02T05:28:28.165Z,-5.22
2016-12-02T05:29:28.120Z,-5.11
2016-12-02T05:30:28.075Z,-5.14
2016-12-02T05:31:28.028Z,-5.23
2016-12-02T05:32:27.983Z,-5.26
2016-12-02T05:33:27.941Z,-5.1
2016-12-02T05:34:27.900Z,-5.08
2016-12-02T05:35:27.550Z,-5.13
2016-12-02T05:36:27.809Z,-5.1
2016-12-02T05:37:27.459Z,-5.07
2016-12-02T05:38:27.431Z,-5.06
2016-12-02T05:39:27.674Z,-5.04
2016-12-02T05:40:27.632Z,-5.03
2016-12-02T05:41:27.585Z,-4.95
2016-12-02T05:42:27.540Z,-4.93
2016-12-02T05:43:27.497Z,-4.93
2016-12-02T05:44:27.453Z,-5.04
2016-12-02T05:45:27.408Z,-5.03
2016-12-02T05:46:27.363Z,-4.96
2016-12-02T05:47:27.019Z,-5.08
2016-12-02T05:48:27.273Z,-5.07
2016-12-02T05:49:27.231Z,-5.11
2016-12-02T05:50:26.883Z,-5.14
2016-12-02T05:51:27.139Z,-5.18
2016-12-02T05:52:26.795Z,-5.27
2016-12-02T05:53:27.052Z,-5.18
2016-12-02T05:54:26.706Z,-5.26
2016-12-02T05:55:26.968Z,-5.22
2016-12-02T05:56:26.921Z,-5.22
2016-12-02T05:57:26.874Z,-5.25
2016-12-02T05:58:26.830Z,-5.26
2016-12-02T05:59:26.785Z,-5.35
2016-12-02T06:00:26.742Z,-5.35
2016-12-02T06:01:26.697Z,-5.37
2016-12-02T06:02:26.654Z,-5.39
2016-12-02T06:03:26.607Z,-5.36
2016-12-02T06:04:26.565Z,-5.39
2016-12-02T06:05:26.527Z,-5.27
2016-12-02T06:06:26.169Z,-5.26
2016-12-02T06:07:26.429Z,-5.35
2016-12-02T06:08:26.382Z,-5.33
2016-12-02T06:09:26.346Z,-5.35
2016-12-02T06:10:26.293Z,-5.35
2016-12-02T06:11:26.250Z,-5.35
2016-12-02T06:12:25.905Z,-5.35
2016-12-02T06:13:26.160Z,-5.33
2016-12-02T06:14:26.116Z,-5.33
2016-12-02T06:15:26.072Z,-5.39
2016-12-02T06:16:26.033Z,-5.41
2016-12-02T06:17:25.679Z,-5.39
2016-12-02T06:18:25.937Z,-5.35
2016-12-02T06:19:25.893Z,-5.37
2016-12-02T06:20:25.850Z,-5.35
2016-12-02T06:21:25.805Z,-5.39
2016-12-02T06:22:25.763Z,-5.37
2016-12-02T06:23:25.714Z,-5.44
2016-12-02T06:24:25.672Z,-5.35
2016-12-02T06:25:25.627Z,-5.46
2016-12-02T06:26:25.581Z,-5.46
2016-12-02T06:27:25.540Z,-5.44
2016-12-02T06:28:25.494Z,-5.47
2016-12-02T06:29:25.149Z,-5.5
2016-12-02T06:30:25.403Z,-5.46
2016-12-02T06:31:25.359Z,-5.48
2016-12-02T06:32:25.019Z,-5.41
2016-12-02T06:33:25.272Z,-5.44
2016-12-02T06:34:25.226Z,-5.47
2016-12-02T06:35:24.879Z,-5.43
2016-12-02T06:36:25.138Z,-5.36
2016-12-02T06:37:25.092Z,-5.37
2016-12-02T06:38:24.749Z,-5.41
2016-12-02T06:39:25.005Z,-5.29
2016-12-02T06:40:24.655Z,-5.18
2016-12-02T06:41:24.632Z,-5.18
2016-12-02T06:42:24.872Z,-5.14
2016-12-02T06:43:24.829Z,-5.06
2016-12-02T06:44:24.790Z,-4.99
2016-12-02T06:45:24.739Z,-5.03
2016-12-02T06:46:24.694Z,-5.07
2016-12-02T06:47:24.648Z,-5.06
2016-12-02T06:48:24.606Z,-5
2016-12-02T06:49:24.257Z,-5.1
2016-12-02T06:50:24.212Z,-4.92
2016-12-02T06:51:24.473Z,-4.99
2016-12-02T06:52:24.124Z,-4.89
2016-12-02T06:53:24.382Z,-4.89
2016-12-02T06:54:24.335Z,-4.9
2016-12-02T06:55:24.294Z,-4.93
2016-12-02T06:56:23.945Z,-4.92
2016-12-02T06:57:24.206Z,-4.93
2016-12-02T06:58:24.162Z,-4.99
2016-12-02T06:59:23.813Z,-4.92
2016-12-02T07:00:24.070Z,-4.9
2016-12-02T07:01:24.031Z,-4.9
2016-12-02T07:02:23.679Z,-4.87
2016-12-02T07:03:23.939Z,-4.95
2016-12-02T07:04:23.593Z,-4.87
2016-12-02T07:05:23.849Z,-4.83
2016-12-02T07:06:23.812Z,-4.87
2016-12-02T07:07:24.217Z,-4.78
2016-12-02T07:08:24.172Z,-4.69
2016-12-02T07:09:23.827Z,-4.6
2016-12-02T07:10:24.090Z,-4.53
2016-12-02T07:11:23.734Z,-4.43
2016-12-02T07:12:23.693Z,-4.39
2016-12-02T07:13:23.648Z,-4.35
2016-12-02T07:14:23.299Z,-4.38
2016-12-02T07:15:23.260Z,-4.25
2016-12-02T07:16:23.819Z,-4.22
2016-12-02T07:17:23.778Z,-4.24
2016-12-02T07:18:23.734Z,-4.2
2016-12-02T07:19:23.693Z,-4.2
2016-12-02T07:20:23.344Z,-4.07
2016-12-02T07:21:23.592Z,-3.72
2016-12-02T07:22:23.251Z,-3.23
2016-12-02T07:23:23.206Z,-2.64
2016-12-02T07:24:23.464Z,-2.12
2016-12-02T07:25:23.423Z,-1.45
2016-12-02T07:26:23.096Z,-0.98
2016-12-02T07:27:23.331Z,-0.65
2016-12-02T07:28:23.289Z,-0.64
2016-12-02T07:29:23.268Z,-0.79
2016-12-02T07:30:23.208Z,-1.07
2016-12-02T07:31:22.880Z,-1.33
2016-12-02T07:32:23.118Z,-1.54
2016-12-02T07:33:23.072Z,-1.54
2016-12-02T07:34:23.026Z,-1.34
2016-12-02T07:35:22.986Z,-0.82
2016-12-02T07:36:22.940Z,-0.21
2016-12-02T07:37:22.601Z,0.35
2016-12-02T07:38:22.550Z,0.93
2016-12-02T07:39:22.511Z,1.36
2016-12-02T07:40:22.782Z,1.86
2016-12-02T07:41:22.726Z,2.1
2016-12-02T07:42:22.380Z,2.48
2016-12-02T07:43:22.650Z,2.78
2016-12-02T07:44:22.602Z,3.02
2016-12-02T07:45:22.257Z,3.26
2016-12-02T07:46:22.233Z,3.48
2016-12-02T07:47:22.482Z,3.75
2016-12-02T07:48:22.135Z,4.02
2016-12-02T07:49:22.396Z,4.16
2016-12-02T07:50:22.052Z,4.09
2016-12-02T07:51:22.319Z,3.7
2016-12-02T07:52:22.276Z,3.24
2016-12-02T07:53:21.936Z,3.06
2016-12-02T07:54:21.590Z,3.11
2016-12-02T07:55:22.157Z,2.77
2016-12-02T07:56:21.808Z,2.74
2016-12-02T07:57:22.074Z,2.9
2016-12-02T07:58:21.728Z,3.21
2016-12-02T07:59:21.697Z,3.42
2016-12-02T08:00:21.349Z,3.11
2016-12-02T08:01:21.611Z,3.13
2016-12-02T08:02:21.887Z,3.57
2016-12-02T08:03:21.539Z,4.05
2016-12-02T08:04:21.799Z,4.33
2016-12-02T08:05:21.755Z,4.09
2016-12-02T08:06:21.715Z,3.58
2016-12-02T08:07:21.376Z,3.15
2016-12-02T08:08:21.635Z,2.64
2016-12-02T08:09:21.596Z,2.2
2016-12-02T08:10:21.259Z,1.77
2016-12-02T08:11:21.219Z,1.36
2016-12-02T08:12:21.182Z,1.12
2016-12-02T08:13:21.150Z,0.88
2016-12-02T08:14:21.403Z,0.55
2016-12-02T08:15:21.066Z,0.29
2016-12-02T08:16:21.022Z,0.15
2016-12-02T08:17:20.981Z,0.08
2016-12-02T08:18:20.943Z,-0.01
2016-12-02T08:19:20.899Z,-0.04
2016-12-02T08:20:21.161Z,-0.1
2016-12-02T08:21:20.816Z,-0.14
2016-12-02T08:22:21.079Z,-0.1
2016-12-02T08:23:20.746Z,-0.11
2016-12-02T08:24:21.020Z,0.13
2016-12-02T08:25:20.967Z,0.9
2016-12-02T08:26:20.920Z,2.16
2016-12-02T08:27:20.878Z,3.39
2016-12-02T08:28:20.839Z,4.54
2016-12-02T08:29:20.798Z,5.64
2016-12-02T08:30:20.752Z,6.43
2016-12-02T08:31:20.714Z,7.07
2016-12-02T08:32:20.673Z,7.48
2016-12-02T08:33:20.637Z,7.83
2016-12-02T08:34:20.597Z,8.22
2016-12-02T08:35:20.257Z,8.52
2016-12-02T08:36:20.516Z,8.98
2016-12-02T08:37:20.179Z,9.28
2016-12-02T08:38:20.442Z,9.57
2016-12-02T08:39:20.409Z,9.83
2016-12-02T08:40:19.764Z,10.11
2016-12-02T08:41:20.337Z,10.44
2016-12-02T08:42:19.998Z,10.81
2016-12-02T08:43:20.265Z,11.04
2016-12-02T08:44:20.254Z,11.22
2016-12-02T08:45:20.191Z,11.58
2016-12-02T08:46:20.162Z,11.8
2016-12-02T08:47:19.517Z,11.99
2016-12-02T08:48:20.110Z,12.12
2016-12-02T08:49:20.055Z,12.31
2016-12-02T08:50:19.716Z,12.49
2016-12-02T08:51:19.677Z,12.68
2016-12-02T08:52:19.654Z,12.79
2016-12-02T08:53:19.916Z,12.96
2016-12-02T08:54:19.578Z,13.05
2016-12-02T08:55:19.849Z,12.92
2016-12-02T08:56:19.819Z,12.96
2016-12-02T08:57:19.791Z,12.82
2016-12-02T08:58:19.455Z,12.07
2016-12-02T08:59:19.420Z,11.95
2016-12-02T09:00:19.389Z,11.72
2016-12-02T09:01:19.657Z,11.06
2016-12-02T09:02:19.627Z,10.22
2016-12-02T09:03:19.312Z,9.15
2016-12-02T09:04:19.261Z,8.2
2016-12-02T09:05:18.931Z,7.45
2016-12-02T09:06:19.498Z,6.99
2016-12-02T09:07:19.487Z,6.69
2016-12-02T09:08:19.436Z,6.19
2016-12-02T09:09:19.099Z,6.04
2016-12-02T09:10:19.369Z,5.85
2016-12-02T09:11:19.334Z,5.82
2016-12-02T09:12:19.300Z,6.11
2016-12-02T09:13:18.964Z,6.88
2016-12-02T09:14:18.932Z,8.07
2016-12-02T09:15:19.193Z,9.08
2016-12-02T09:16:19.166Z,10.02
2016-12-02T09:17:18.535Z,10.66
2016-12-02T09:18:18.793Z,11.22
2016-12-02T09:19:19.066Z,11.72
2016-12-02T09:20:18.728Z,12.24
2016-12-02T09:21:18.692Z,12.75
2016-12-02T09:22:18.664Z,13.04
2016-12-02T09:23:18.325Z,13.59
2016-12-02T09:24:18.899Z,13.92
2016-12-02T09:25:18.598Z,14.33
2016-12-02T09:26:18.533Z,14.22
2016-12-02T09:27:18.502Z,13.39
2016-12-02T09:28:18.171Z,12.46
2016-12-02T09:29:18.441Z,11.82
2016-12-02T09:30:18.407Z,11.22
2016-12-02T09:31:18.379Z,11.39
2016-12-02T09:32:18.644Z,11.99
2016-12-02T09:33:18.621Z,12.31
2016-12-02T09:34:18.281Z,12.28
2016-12-02T09:35:18.553Z,12.02
2016-12-02T09:36:18.520Z,12.04
2016-12-02T09:37:18.490Z,12.35
2016-12-02T09:38:18.462Z,12.45
2016-12-02T09:39:18.128Z,12.92
2016-12-02T09:40:18.397Z,13.23
2016-12-02T09:41:18.066Z,13.7
2016-12-02T09:42:18.346Z,14
2016-12-02T09:43:18.310Z,13.88
2016-12-02T09:44:18.283Z,13.6
2016-12-02T09:45:17.966Z,13.54
2016-12-02T09:46:18.215Z,13.67
2016-12-02T09:47:18.187Z,13.95
2016-12-02T09:48:18.155Z,14.43
2016-12-02T09:49:17.521Z,14.91
2016-12-02T09:50:17.794Z,14.95
2016-12-02T09:51:17.767Z,14.21
2016-12-02T09:52:18.049Z,13.29
2016-12-02T09:53:18.011Z,13.59
2016-12-02T09:54:17.981Z,13.88
2016-12-02T09:55:17.959Z,14.32
2016-12-02T09:56:17.639Z,14.54
2016-12-02T09:57:17.893Z,14.57
2016-12-02T09:58:17.564Z,14.54
2016-12-02T09:59:17.834Z,14.72
2016-12-02T10:00:17.505Z,14.83
2016-12-02T10:01:17.174Z,14.83
2016-12-02T10:02:17.754Z,14.58
2016-12-02T10:03:17.726Z,14.43
2016-12-02T10:04:17.693Z,14.12
2016-12-02T10:05:17.058Z,13.99
2016-12-02T10:06:17.638Z,13.96
2016-12-02T10:07:17.303Z,14.24
2016-12-02T10:08:17.276Z,14.33
2016-12-02T10:09:16.943Z,14.4
2016-12-02T10:10:17.212Z,14.51
2016-12-02T10:11:17.489Z,14.7
2016-12-02T10:12:17.478Z,15.07
2016-12-02T10:13:17.433Z,15.34
2016-12-02T10:14:17.097Z,15.53
2016-12-02T10:15:17.374Z,15.68
2016-12-02T10:16:17.355Z,15.76
2016-12-02T10:17:17.340Z,15.76
2016-12-02T10:18:16.683Z,15.68
2016-12-02T10:19:17.259Z,15.47
2016-12-02T10:20:16.931Z,15.21
2016-12-02T10:21:17.200Z,14.81
2016-12-02T10:22:17.174Z,14.6
2016-12-02T10:23:16.840Z,14.6
2016-12-02T10:24:16.813Z,14.6
2016-12-02T10:25:17.088Z,14.73
2016-12-02T10:26:16.755Z,15.03
2016-12-02T10:27:17.030Z,15.44
2016-12-02T10:28:17.000Z,15.64
2016-12-02T10:29:16.665Z,15.74
2016-12-02T10:30:16.337Z,15.86
2016-12-02T10:31:16.910Z,15.87
2016-12-02T10:32:16.885Z,15.83
2016-12-02T10:33:16.554Z,15.75
2016-12-02T10:34:16.830Z,15.74
2016-12-02T10:35:16.806Z,15.69
2016-12-02T10:36:16.470Z,15.74
2016-12-02T10:37:16.434Z,15.71
2016-12-02T10:38:16.415Z,15.65
2016-12-02T10:39:16.681Z,15.62
2016-12-02T10:40:16.348Z,15.59
2016-12-02T10:41:16.019Z,15.43
2016-12-02T10:42:16.291Z,15.19
2016-12-02T10:43:16.568Z,15.03
2016-12-02T10:44:16.535Z,14.69
2016-12-02T10:45:16.205Z,14.42
2016-12-02T10:46:16.489Z,14.28
2016-12-02T10:47:16.474Z,14.35
2016-12-02T10:48:16.440Z,14.4
2016-12-02T10:49:16.089Z,14.4
2016-12-02T10:50:16.362Z,14.42
2016-12-02T10:51:16.332Z,14.57
2016-12-02T10:52:16.301Z,14.84
2016-12-02T10:53:15.973Z,15.06
2016-12-02T10:54:16.252Z,15.2
2016-12-02T10:55:16.214Z,15.39
2016-12-02T10:56:16.186Z,15.51
2016-12-02T10:57:15.851Z,15.36
2016-12-02T10:58:16.125Z,15.36
2016-12-02T10:59:16.097Z,15.36
2016-12-02T11:00:16.068Z,15.46
2016-12-02T11:01:15.735Z,15.39
2016-12-02T11:02:16.014Z,15.35
2016-12-02T11:03:16.128Z,15.41
2016-12-02T11:04:15.646Z,15.49
2016-12-02T11:05:15.620Z,15.47
2016-12-02T11:06:15.904Z,15.28
2016-12-02T11:07:15.563Z,14.98
2016-12-02T11:08:15.832Z,14.72
2016-12-02T11:09:15.803Z,14.58
2016-12-02T11:10:15.776Z,14.46
2016-12-02T11:11:15.444Z,14.65
2016-12-02T11:12:15.714Z,14.52
2016-12-02T11:13:15.433Z,14.25
2016-12-02T11:14:15.350Z,14.33
2016-12-02T11:15:15.627Z,14.42
2016-12-02T11:16:15.590Z,14.39
2016-12-02T11:17:15.562Z,14.42
2016-12-02T11:18:15.533Z,14.52
2016-12-02T11:19:15.501Z,14.55
2016-12-02T11:20:15.481Z,14.55
2016-12-02T11:21:15.139Z,14.75
2016-12-02T11:22:15.434Z,14.89
2016-12-02T11:23:15.072Z,14.95
2016-12-02T11:24:15.346Z,14.99
2016-12-02T11:25:15.314Z,14.73
2016-12-02T11:26:15.284Z,14.5
2016-12-02T11:27:15.329Z,14.46
2016-12-02T11:28:14.919Z,14.47
2016-12-02T11:29:14.884Z,14.58
2016-12-02T11:30:15.273Z,14.69
2016-12-02T11:31:15.125Z,14.72
2016-12-02T11:32:15.088Z,14.61
2016-12-02T11:33:15.058Z,14.37
2016-12-02T11:34:14.732Z,14.35
2016-12-02T11:35:14.695Z,14.17
2016-12-02T11:36:14.964Z,13.91
2016-12-02T11:37:14.342Z,13.82
2016-12-02T11:38:14.294Z,13.64
2016-12-02T11:39:14.561Z,13.71
2016-12-02T11:40:14.826Z,13.59
2016-12-02T11:41:14.498Z,13.57
2016-12-02T11:42:14.764Z,13.63
2016-12-02T11:43:14.730Z,13.7
2016-12-02T11:44:14.696Z,13.49
2016-12-02T11:45:14.663Z,13.05
2016-12-02T11:46:14.624Z,13
2016-12-02T11:47:14.593Z,12.79
2016-12-02T11:48:13.959Z,12.79
2016-12-02T11:49:13.918Z,12.75
2016-12-02T11:50:14.185Z,12.71
2016-12-02T11:51:14.155Z,12.56
2016-12-02T11:52:14.416Z,12.6
2016-12-02T11:53:14.381Z,12.74
2016-12-02T11:54:14.060Z,12.75
2016-12-02T11:55:14.310Z,12.79
2016-12-02T11:56:13.970Z,12.85
2016-12-02T11:57:14.235Z,12.77
2016-12-02T11:58:13.901Z,12.71
2016-12-02T11:59:14.167Z,12.56
2016-12-02T12:00:13.859Z,12.47
2016-12-02T12:01:14.094Z,12.17
2016-12-02T12:02:13.759Z,12.04
2016-12-02T12:03:13.416Z,11.94
2016-12-02T12:04:13.994Z,11.76
2016-12-02T12:05:13.651Z,11.39
2016-12-02T12:06:13.607Z,10.94
2016-12-02T12:07:13.571Z,10.63
2016-12-02T12:08:13.838Z,10.2
2016-12-02T12:09:13.498Z,9.86
2016-12-02T12:10:13.463Z,9.57
2016-12-02T12:11:13.731Z,9.33
2016-12-02T12:12:13.692Z,9.13
2016-12-02T12:13:13.354Z,8.74
2016-12-02T12:14:13.319Z,8.43
2016-12-02T12:15:13.276Z,8.18
2016-12-02T12:16:12.935Z,8.02
2016-12-02T12:17:13.501Z,7.98
2016-12-02T12:18:13.163Z,8.02
2016-12-02T12:19:13.427Z,7.95
2016-12-02T12:20:13.395Z,7.9
2016-12-02T12:21:13.050Z,7.87
2016-12-02T12:22:13.015Z,7.85
2016-12-02T12:23:13.282Z,7.89
2016-12-02T12:24:12.942Z,7.9
2016-12-02T12:25:13.204Z,7.92
2016-12-02T12:26:13.165Z,7.95
2016-12-02T12:27:12.826Z,7.83
2016-12-02T12:28:13.091Z,7.64
2016-12-02T12:29:13.049Z,7.37
2016-12-02T12:30:13.023Z,7.28
2016-12-02T12:31:12.372Z,7.15
2016-12-02T12:32:12.939Z,6.97
2016-12-02T12:33:12.903Z,6.84
2016-12-02T12:34:12.860Z,6.73
2016-12-02T12:35:12.520Z,6.67
2016-12-02T12:36:12.792Z,6.69
2016-12-02T12:37:12.747Z,6.64
2016-12-02T12:38:12.419Z,6.71
2016-12-02T12:39:12.372Z,6.59
2016-12-02T12:40:12.638Z,6.54
2016-12-02T12:41:12.293Z,6.52
2016-12-02T12:42:12.585Z,6.51
2016-12-02T12:43:12.520Z,6.61
2016-12-02T12:44:11.877Z,6.67
2016-12-02T12:45:11.840Z,6.54
2016-12-02T12:46:12.407Z,6.51
2016-12-02T12:47:12.368Z,6.59
2016-12-02T12:48:12.334Z,6.56
2016-12-02T12:49:11.984Z,6.55
2016-12-02T12:50:12.250Z,6.51
2016-12-02T12:51:11.907Z,6.49
2016-12-02T12:52:12.173Z,6.61
2016-12-02T12:53:11.829Z,6.71
2016-12-02T12:54:11.490Z,6.7
2016-12-02T12:55:12.055Z,6.84
2016-12-02T12:56:12.014Z,6.94
2016-12-02T12:57:11.981Z,7.02
2016-12-02T12:58:11.941Z,7.1
2016-12-02T12:59:11.907Z,7.03
2016-12-02T13:00:11.861Z,7.03